sensor_id;sensor_type;location;lat;lon;timestamp;P1;durP1;ratioP1;P2;durP2;ratioP2
10481;SDS011;5288;42.334;23.876;2023-04-16T00:01:32;9.77;;;5.67;;
10481;SDS011;5288;42.334;23.876;2023-04-16T00:04:00;5.67;;;4.70;;
10481;SDS011;5288;42.334;23.876;2023-04-16T00:06:27;7.90;;;5.63;;
10481;SDS011;5288;42.334;23.876;2023-04-16T00:08:54;7.37;;;5.23;;
10481;SDS011;5288;42.334;23.876;2023-04-16T00:11:21;6.27;;;4.37;;
10481;SDS011;5288;42.334;23.876;2023-04-16T00:13:48;7.57;;;5.33;;
10481;SDS011;5288;42.334;23.876;2023-04-16T00:16:15;6.63;;;5.03;;
10481;SDS011;5288;42.334;23.876;2023-04-16T00:18:42;7.57;;;5.93;;
10481;SDS011;5288;42.334;23.876;2023-04-16T00:21:10;10.43;;;5.33;;
10481;SDS011;5288;42.334;23.876;2023-04-16T00:23:37;7.53;;;6.00;;
10481;SDS011;5288;42.334;23.876;2023-04-16T00:26:04;7.20;;;5.47;;
10481;SDS011;5288;42.334;23.876;2023-04-16T00:28:31;11.07;;;7.33;;
10481;SDS011;5288;42.334;23.876;2023-04-16T00:30:59;7.83;;;5.20;;
10481;SDS011;5288;42.334;23.876;2023-04-16T00:33:27;8.03;;;5.70;;
10481;SDS011;5288;42.334;23.876;2023-04-16T00:35:54;7.57;;;4.37;;
10481;SDS011;5288;42.334;23.876;2023-04-16T00:38:22;5.07;;;4.20;;
10481;SDS011;5288;42.334;23.876;2023-04-16T00:40:54;5.97;;;4.10;;
10481;SDS011;5288;42.334;23.876;2023-04-16T00:43:23;8.00;;;4.73;;
10481;SDS011;5288;42.334;23.876;2023-04-16T00:45:51;6.07;;;4.57;;
10481;SDS011;5288;42.334;23.876;2023-04-16T00:48:20;7.93;;;4.53;;
10481;SDS011;5288;42.334;23.876;2023-04-16T00:50:47;5.27;;;4.40;;
10481;SDS011;5288;42.334;23.876;2023-04-16T00:53:14;6.77;;;4.50;;
10481;SDS011;5288;42.334;23.876;2023-04-16T00:55:43;7.20;;;4.63;;
10481;SDS011;5288;42.334;23.876;2023-04-16T00:58:10;7.53;;;4.27;;
10481;SDS011;5288;42.334;23.876;2023-04-16T01:00:37;6.63;;;4.50;;
10481;SDS011;5288;42.334;23.876;2023-04-16T01:03:05;6.73;;;3.73;;
10481;SDS011;5288;42.334;23.876;2023-04-16T01:05:32;8.27;;;4.17;;
10481;SDS011;5288;42.334;23.876;2023-04-16T01:08:00;8.00;;;4.53;;
10481;SDS011;5288;42.334;23.876;2023-04-16T01:10:27;4.83;;;3.90;;
10481;SDS011;5288;42.334;23.876;2023-04-16T01:12:56;3.80;;;3.40;;
10481;SDS011;5288;42.334;23.876;2023-04-16T01:15:23;5.20;;;3.67;;
10481;SDS011;5288;42.334;23.876;2023-04-16T01:17:50;5.87;;;3.90;;
10481;SDS011;5288;42.334;23.876;2023-04-16T01:20:17;7.10;;;5.57;;
10481;SDS011;5288;42.334;23.876;2023-04-16T01:22:45;8.00;;;4.60;;
10481;SDS011;5288;42.334;23.876;2023-04-16T01:25:13;6.77;;;4.63;;
10481;SDS011;5288;42.334;23.876;2023-04-16T01:27:40;7.93;;;4.73;;
10481;SDS011;5288;42.334;23.876;2023-04-16T01:30:08;5.77;;;4.53;;
10481;SDS011;5288;42.334;23.876;2023-04-16T01:32:35;4.60;;;3.80;;
10481;SDS011;5288;42.334;23.876;2023-04-16T01:35:02;5.47;;;3.83;;
10481;SDS011;5288;42.334;23.876;2023-04-16T01:37:29;5.60;;;3.50;;
10481;SDS011;5288;42.334;23.876;2023-04-16T01:39:58;6.83;;;3.73;;
10481;SDS011;5288;42.334;23.876;2023-04-16T01:42:25;5.67;;;3.70;;
10481;SDS011;5288;42.334;23.876;2023-04-16T01:44:52;6.20;;;3.40;;
10481;SDS011;5288;42.334;23.876;2023-04-16T01:47:19;8.17;;;3.33;;
10481;SDS011;5288;42.334;23.876;2023-04-16T01:49:46;5.47;;;3.50;;
10481;SDS011;5288;42.334;23.876;2023-04-16T01:52:13;7.97;;;3.50;;
10481;SDS011;5288;42.334;23.876;2023-04-16T01:54:40;6.60;;;3.77;;
10481;SDS011;5288;42.334;23.876;2023-04-16T01:57:09;4.07;;;3.30;;
10481;SDS011;5288;42.334;23.876;2023-04-16T01:59:36;6.87;;;3.70;;
10481;SDS011;5288;42.334;23.876;2023-04-16T02:02:04;5.13;;;3.43;;
10481;SDS011;5288;42.334;23.876;2023-04-16T02:04:35;7.70;;;3.70;;
10481;SDS011;5288;42.334;23.876;2023-04-16T02:07:02;3.87;;;3.37;;
10481;SDS011;5288;42.334;23.876;2023-04-16T02:09:29;4.53;;;3.70;;
10481;SDS011;5288;42.334;23.876;2023-04-16T02:11:57;5.20;;;3.67;;
10481;SDS011;5288;42.334;23.876;2023-04-16T02:14:25;4.57;;;2.93;;
10481;SDS011;5288;42.334;23.876;2023-04-16T02:16:52;5.67;;;3.00;;
10481;SDS011;5288;42.334;23.876;2023-04-16T02:19:19;4.77;;;3.30;;
10481;SDS011;5288;42.334;23.876;2023-04-16T02:21:46;5.97;;;3.50;;
10481;SDS011;5288;42.334;23.876;2023-04-16T02:24:13;4.43;;;3.23;;
10481;SDS011;5288;42.334;23.876;2023-04-16T02:26:40;4.73;;;3.40;;
10481;SDS011;5288;42.334;23.876;2023-04-16T02:29:07;4.13;;;3.37;;
10481;SDS011;5288;42.334;23.876;2023-04-16T02:31:35;3.93;;;3.30;;
10481;SDS011;5288;42.334;23.876;2023-04-16T02:34:03;7.40;;;3.80;;
10481;SDS011;5288;42.334;23.876;2023-04-16T02:36:30;14.20;;;6.23;;
10481;SDS011;5288;42.334;23.876;2023-04-16T02:38:57;5.17;;;4.57;;
10481;SDS011;5288;42.334;23.876;2023-04-16T02:41:24;5.20;;;4.20;;
10481;SDS011;5288;42.334;23.876;2023-04-16T02:43:51;5.47;;;3.70;;
10481;SDS011;5288;42.334;23.876;2023-04-16T02:46:18;4.13;;;3.40;;
10481;SDS011;5288;42.334;23.876;2023-04-16T02:48:47;7.83;;;4.97;;
10481;SDS011;5288;42.334;23.876;2023-04-16T02:51:14;4.93;;;3.50;;
10481;SDS011;5288;42.334;23.876;2023-04-16T02:53:40;5.10;;;3.30;;
10481;SDS011;5288;42.334;23.876;2023-04-16T02:56:10;8.53;;;4.97;;
10481;SDS011;5288;42.334;23.876;2023-04-16T02:58:37;8.53;;;6.13;;
10481;SDS011;5288;42.334;23.876;2023-04-16T03:01:04;9.67;;;5.70;;
10481;SDS011;5288;42.334;23.876;2023-04-16T03:03:31;6.10;;;4.87;;
10481;SDS011;5288;42.334;23.876;2023-04-16T03:06:00;6.10;;;3.60;;
10481;SDS011;5288;42.334;23.876;2023-04-16T03:08:27;4.17;;;3.30;;
10481;SDS011;5288;42.334;23.876;2023-04-16T03:10:54;6.93;;;5.07;;
10481;SDS011;5288;42.334;23.876;2023-04-16T03:13:20;10.60;;;6.13;;
10481;SDS011;5288;42.334;23.876;2023-04-16T03:15:47;12.03;;;8.67;;
10481;SDS011;5288;42.334;23.876;2023-04-16T03:18:14;13.67;;;7.97;;
10481;SDS011;5288;42.334;23.876;2023-04-16T03:20:41;6.43;;;4.03;;
10481;SDS011;5288;42.334;23.876;2023-04-16T03:23:10;8.83;;;4.37;;
10481;SDS011;5288;42.334;23.876;2023-04-16T03:25:37;4.27;;;3.27;;
10481;SDS011;5288;42.334;23.876;2023-04-16T03:28:04;5.27;;;3.67;;
10481;SDS011;5288;42.334;23.876;2023-04-16T03:30:31;7.40;;;4.07;;
10481;SDS011;5288;42.334;23.876;2023-04-16T03:32:58;5.90;;;3.90;;
10481;SDS011;5288;42.334;23.876;2023-04-16T03:35:25;7.57;;;4.00;;
10481;SDS011;5288;42.334;23.876;2023-04-16T03:37:52;4.47;;;4.00;;
10481;SDS011;5288;42.334;23.876;2023-04-16T03:40:21;4.90;;;3.60;;
10481;SDS011;5288;42.334;23.876;2023-04-16T03:42:47;4.57;;;3.50;;
10481;SDS011;5288;42.334;23.876;2023-04-16T03:45:15;4.93;;;4.23;;
10481;SDS011;5288;42.334;23.876;2023-04-16T03:47:41;6.07;;;3.57;;
10481;SDS011;5288;42.334;23.876;2023-04-16T03:50:09;6.10;;;4.40;;
10481;SDS011;5288;42.334;23.876;2023-04-16T03:52:37;7.43;;;4.70;;
10481;SDS011;5288;42.334;23.876;2023-04-16T03:55:05;6.67;;;4.90;;
10481;SDS011;5288;42.334;23.876;2023-04-16T03:57:34;7.87;;;3.93;;
10481;SDS011;5288;42.334;23.876;2023-04-16T04:00:01;7.40;;;4.77;;
10481;SDS011;5288;42.334;23.876;2023-04-16T04:02:28;6.73;;;4.30;;
10481;SDS011;5288;42.334;23.876;2023-04-16T04:04:55;7.37;;;4.57;;
10481;SDS011;5288;42.334;23.876;2023-04-16T04:07:22;7.60;;;4.10;;
10481;SDS011;5288;42.334;23.876;2023-04-16T04:09:49;7.53;;;4.30;;
10481;SDS011;5288;42.334;23.876;2023-04-16T04:12:16;5.53;;;3.80;;
10481;SDS011;5288;42.334;23.876;2023-04-16T04:14:44;4.73;;;3.50;;
10481;SDS011;5288;42.334;23.876;2023-04-16T04:17:11;5.20;;;3.40;;
10481;SDS011;5288;42.334;23.876;2023-04-16T04:19:38;6.33;;;3.70;;
10481;SDS011;5288;42.334;23.876;2023-04-16T04:22:05;6.33;;;3.50;;
10481;SDS011;5288;42.334;23.876;2023-04-16T04:24:32;6.67;;;3.47;;
10481;SDS011;5288;42.334;23.876;2023-04-16T04:26:59;5.00;;;3.43;;
10481;SDS011;5288;42.334;23.876;2023-04-16T04:29:26;7.33;;;5.27;;
10481;SDS011;5288;42.334;23.876;2023-04-16T04:31:54;6.93;;;3.90;;
10481;SDS011;5288;42.334;23.876;2023-04-16T04:34:23;6.53;;;4.47;;
10481;SDS011;5288;42.334;23.876;2023-04-16T04:36:50;5.90;;;4.93;;
10481;SDS011;5288;42.334;23.876;2023-04-16T04:39:17;7.53;;;5.10;;
10481;SDS011;5288;42.334;23.876;2023-04-16T04:41:45;9.63;;;6.90;;
10481;SDS011;5288;42.334;23.876;2023-04-16T04:44:13;11.23;;;7.03;;
10481;SDS011;5288;42.334;23.876;2023-04-16T04:46:39;31.07;;;15.27;;
10481;SDS011;5288;42.334;23.876;2023-04-16T04:49:08;29.53;;;18.00;;
10481;SDS011;5288;42.334;23.876;2023-04-16T04:51:35;29.10;;;19.20;;
10481;SDS011;5288;42.334;23.876;2023-04-16T04:54:02;18.07;;;11.90;;
10481;SDS011;5288;42.334;23.876;2023-04-16T04:56:29;29.53;;;16.93;;
10481;SDS011;5288;42.334;23.876;2023-04-16T04:58:56;29.07;;;17.57;;
10481;SDS011;5288;42.334;23.876;2023-04-16T05:01:23;30.77;;;17.73;;
10481;SDS011;5288;42.334;23.876;2023-04-16T05:03:50;34.63;;;21.77;;
10481;SDS011;5288;42.334;23.876;2023-04-16T05:06:20;51.33;;;31.07;;
10481;SDS011;5288;42.334;23.876;2023-04-16T05:08:47;65.93;;;37.50;;
10481;SDS011;5288;42.334;23.876;2023-04-16T05:11:14;62.53;;;35.60;;
10481;SDS011;5288;42.334;23.876;2023-04-16T05:13:41;76.77;;;47.70;;
10481;SDS011;5288;42.334;23.876;2023-04-16T05:16:08;78.37;;;49.83;;
10481;SDS011;5288;42.334;23.876;2023-04-16T05:18:35;65.10;;;41.93;;
10481;SDS011;5288;42.334;23.876;2023-04-16T05:21:02;75.50;;;48.03;;
10481;SDS011;5288;42.334;23.876;2023-04-16T05:23:30;73.67;;;46.07;;
10481;SDS011;5288;42.334;23.876;2023-04-16T05:25:57;69.80;;;44.97;;
10481;SDS011;5288;42.334;23.876;2023-04-16T05:28:24;74.80;;;48.47;;
10481;SDS011;5288;42.334;23.876;2023-04-16T05:30:53;88.93;;;51.40;;
10481;SDS011;5288;42.334;23.876;2023-04-16T05:33:20;80.23;;;51.60;;
10481;SDS011;5288;42.334;23.876;2023-04-16T05:35:50;85.63;;;60.63;;
10481;SDS011;5288;42.334;23.876;2023-04-16T05:38:16;85.13;;;57.73;;
10481;SDS011;5288;42.334;23.876;2023-04-16T05:40:45;40.10;;;27.90;;
10481;SDS011;5288;42.334;23.876;2023-04-16T05:43:12;17.50;;;11.33;;
10481;SDS011;5288;42.334;23.876;2023-04-16T05:45:39;14.23;;;9.67;;
10481;SDS011;5288;42.334;23.876;2023-04-16T05:48:06;18.07;;;10.50;;
10481;SDS011;5288;42.334;23.876;2023-04-16T05:50:33;16.93;;;12.23;;
10481;SDS011;5288;42.334;23.876;2023-04-16T05:53:00;14.60;;;11.80;;
10481;SDS011;5288;42.334;23.876;2023-04-16T05:55:27;10.00;;;6.47;;
10481;SDS011;5288;42.334;23.876;2023-04-16T05:57:56;9.17;;;5.70;;
10481;SDS011;5288;42.334;23.876;2023-04-16T06:00:23;7.77;;;5.27;;
10481;SDS011;5288;42.334;23.876;2023-04-16T06:02:51;9.10;;;6.67;;
10481;SDS011;5288;42.334;23.876;2023-04-16T06:05:18;10.03;;;7.10;;
10481;SDS011;5288;42.334;23.876;2023-04-16T06:07:45;12.40;;;9.33;;
10481;SDS011;5288;42.334;23.876;2023-04-16T06:10:12;9.87;;;7.37;;
10481;SDS011;5288;42.334;23.876;2023-04-16T06:12:39;8.10;;;5.97;;
10481;SDS011;5288;42.334;23.876;2023-04-16T06:15:08;6.93;;;5.30;;
10481;SDS011;5288;42.334;23.876;2023-04-16T06:17:35;5.10;;;4.03;;
10481;SDS011;5288;42.334;23.876;2023-04-16T06:20:05;6.40;;;4.40;;
10481;SDS011;5288;42.334;23.876;2023-04-16T06:22:33;4.23;;;3.57;;
10481;SDS011;5288;42.334;23.876;2023-04-16T06:25:00;9.00;;;3.93;;
10481;SDS011;5288;42.334;23.876;2023-04-16T06:27:27;6.43;;;3.00;;
10481;SDS011;5288;42.334;23.876;2023-04-16T06:29:55;5.33;;;2.77;;
10481;SDS011;5288;42.334;23.876;2023-04-16T06:32:24;6.93;;;3.33;;
10481;SDS011;5288;42.334;23.876;2023-04-16T06:34:51;4.30;;;2.27;;
10481;SDS011;5288;42.334;23.876;2023-04-16T06:37:18;4.23;;;2.67;;
10481;SDS011;5288;42.334;23.876;2023-04-16T06:39:45;4.50;;;2.83;;
10481;SDS011;5288;42.334;23.876;2023-04-16T06:42:12;7.37;;;3.20;;
10481;SDS011;5288;42.334;23.876;2023-04-16T06:44:38;4.80;;;2.70;;
10481;SDS011;5288;42.334;23.876;2023-04-16T06:47:05;8.67;;;3.07;;
10481;SDS011;5288;42.334;23.876;2023-04-16T06:49:34;6.07;;;3.20;;
10481;SDS011;5288;42.334;23.876;2023-04-16T06:52:01;5.50;;;2.50;;
10481;SDS011;5288;42.334;23.876;2023-04-16T06:54:28;4.20;;;2.87;;
10481;SDS011;5288;42.334;23.876;2023-04-16T06:56:55;4.27;;;2.80;;
10481;SDS011;5288;42.334;23.876;2023-04-16T06:59:22;5.17;;;3.00;;
10481;SDS011;5288;42.334;23.876;2023-04-16T07:01:50;7.37;;;3.80;;
10481;SDS011;5288;42.334;23.876;2023-04-16T07:04:17;6.27;;;3.67;;
10481;SDS011;5288;42.334;23.876;2023-04-16T07:06:45;7.50;;;4.50;;
10481;SDS011;5288;42.334;23.876;2023-04-16T07:09:12;5.77;;;3.97;;
10481;SDS011;5288;42.334;23.876;2023-04-16T07:11:39;47.87;;;21.43;;
10481;SDS011;5288;42.334;23.876;2023-04-16T07:14:08;14.23;;;4.23;;
10481;SDS011;5288;42.334;23.876;2023-04-16T07:16:35;23.60;;;11.50;;
10481;SDS011;5288;42.334;23.876;2023-04-16T07:19:02;9.07;;;3.33;;
10481;SDS011;5288;42.334;23.876;2023-04-16T07:21:29;10.17;;;4.87;;
10481;SDS011;5288;42.334;23.876;2023-04-16T07:23:58;6.30;;;3.33;;
10481;SDS011;5288;42.334;23.876;2023-04-16T07:26:25;8.07;;;4.77;;
10481;SDS011;5288;42.334;23.876;2023-04-16T07:28:52;15.07;;;7.00;;
10481;SDS011;5288;42.334;23.876;2023-04-16T07:31:19;15.47;;;7.70;;
10481;SDS011;5288;42.334;23.876;2023-04-16T07:33:46;35.90;;;19.03;;
10481;SDS011;5288;42.334;23.876;2023-04-16T07:36:13;41.30;;;19.70;;
10481;SDS011;5288;42.334;23.876;2023-04-16T07:38:40;18.43;;;9.53;;
10481;SDS011;5288;42.334;23.876;2023-04-16T07:41:08;54.93;;;29.87;;
10481;SDS011;5288;42.334;23.876;2023-04-16T07:43:35;12.07;;;6.30;;
10481;SDS011;5288;42.334;23.876;2023-04-16T07:46:02;15.73;;;6.23;;
10481;SDS011;5288;42.334;23.876;2023-04-16T07:48:29;4.80;;;2.03;;
10481;SDS011;5288;42.334;23.876;2023-04-16T07:50:56;33.67;;;18.47;;
10481;SDS011;5288;42.334;23.876;2023-04-16T07:53:23;12.70;;;5.93;;
10481;SDS011;5288;42.334;23.876;2023-04-16T07:55:50;6.60;;;3.93;;
10481;SDS011;5288;42.334;23.876;2023-04-16T07:58:18;5.33;;;2.83;;
10481;SDS011;5288;42.334;23.876;2023-04-16T08:00:45;13.73;;;8.63;;
10481;SDS011;5288;42.334;23.876;2023-04-16T08:03:12;5.53;;;2.40;;
10481;SDS011;5288;42.334;23.876;2023-04-16T08:05:40;8.87;;;4.37;;
10481;SDS011;5288;42.334;23.876;2023-04-16T08:08:07;29.20;;;13.80;;
10481;SDS011;5288;42.334;23.876;2023-04-16T08:10:34;36.73;;;16.67;;
10481;SDS011;5288;42.334;23.876;2023-04-16T08:13:00;23.03;;;10.13;;
10481;SDS011;5288;42.334;23.876;2023-04-16T08:15:29;64.93;;;29.23;;
10481;SDS011;5288;42.334;23.876;2023-04-16T08:17:56;12.97;;;6.07;;
10481;SDS011;5288;42.334;23.876;2023-04-16T08:20:23;13.73;;;4.90;;
10481;SDS011;5288;42.334;23.876;2023-04-16T08:22:51;20.73;;;10.70;;
10481;SDS011;5288;42.334;23.876;2023-04-16T08:25:19;6.80;;;2.60;;
10481;SDS011;5288;42.334;23.876;2023-04-16T08:27:47;3.17;;;1.83;;
10481;SDS011;5288;42.334;23.876;2023-04-16T08:30:14;4.80;;;1.90;;
10481;SDS011;5288;42.334;23.876;2023-04-16T08:32:43;42.80;;;21.93;;
10481;SDS011;5288;42.334;23.876;2023-04-16T08:35:10;6.57;;;3.07;;
10481;SDS011;5288;42.334;23.876;2023-04-16T08:37:37;4.50;;;3.10;;
10481;SDS011;5288;42.334;23.876;2023-04-16T08:40:04;6.37;;;2.57;;
10481;SDS011;5288;42.334;23.876;2023-04-16T08:42:33;8.87;;;4.67;;
10481;SDS011;5288;42.334;23.876;2023-04-16T08:45:05;8.07;;;4.00;;
10481;SDS011;5288;42.334;23.876;2023-04-16T08:47:38;4.87;;;2.70;;
10481;SDS011;5288;42.334;23.876;2023-04-16T08:50:08;33.70;;;18.17;;
10481;SDS011;5288;42.334;23.876;2023-04-16T08:52:37;26.53;;;13.83;;
10481;SDS011;5288;42.334;23.876;2023-04-16T08:55:11;33.40;;;17.93;;
10481;SDS011;5288;42.334;23.876;2023-04-16T08:57:42;17.27;;;9.10;;
10481;SDS011;5288;42.334;23.876;2023-04-16T09:00:12;6.27;;;2.10;;
10481;SDS011;5288;42.334;23.876;2023-04-16T09:02:41;13.00;;;6.47;;
10481;SDS011;5288;42.334;23.876;2023-04-16T09:05:11;8.87;;;3.50;;
10481;SDS011;5288;42.334;23.876;2023-04-16T09:07:41;7.73;;;2.60;;
10481;SDS011;5288;42.334;23.876;2023-04-16T09:10:09;4.97;;;2.10;;
10481;SDS011;5288;42.334;23.876;2023-04-16T09:12:37;12.30;;;5.40;;
10481;SDS011;5288;42.334;23.876;2023-04-16T09:15:07;7.80;;;5.20;;
10481;SDS011;5288;42.334;23.876;2023-04-16T09:17:36;13.80;;;8.57;;
10481;SDS011;5288;42.334;23.876;2023-04-16T09:20:03;47.23;;;28.23;;
10481;SDS011;5288;42.334;23.876;2023-04-16T09:22:34;6.57;;;4.03;;
10481;SDS011;5288;42.334;23.876;2023-04-16T09:25:01;5.37;;;2.23;;
10481;SDS011;5288;42.334;23.876;2023-04-16T09:27:28;14.93;;;10.03;;
10481;SDS011;5288;42.334;23.876;2023-04-16T09:29:56;7.77;;;4.90;;
10481;SDS011;5288;42.334;23.876;2023-04-16T09:32:23;12.70;;;6.50;;
10481;SDS011;5288;42.334;23.876;2023-04-16T09:34:55;7.30;;;4.50;;
10481;SDS011;5288;42.334;23.876;2023-04-16T09:37:23;5.83;;;2.10;;
10481;SDS011;5288;42.334;23.876;2023-04-16T09:39:55;9.50;;;3.77;;
10481;SDS011;5288;42.334;23.876;2023-04-16T09:42:24;9.07;;;4.10;;
10481;SDS011;5288;42.334;23.876;2023-04-16T09:44:52;10.30;;;6.83;;
10481;SDS011;5288;42.334;23.876;2023-04-16T09:47:21;9.50;;;4.13;;
10481;SDS011;5288;42.334;23.876;2023-04-16T09:49:49;4.67;;;2.67;;
10481;SDS011;5288;42.334;23.876;2023-04-16T09:52:16;7.60;;;3.00;;
10481;SDS011;5288;42.334;23.876;2023-04-16T09:54:47;4.77;;;2.50;;
10481;SDS011;5288;42.334;23.876;2023-04-16T09:57:18;13.93;;;4.03;;
10481;SDS011;5288;42.334;23.876;2023-04-16T09:59:51;3.73;;;2.30;;
10481;SDS011;5288;42.334;23.876;2023-04-16T10:02:24;5.43;;;2.97;;
10481;SDS011;5288;42.334;23.876;2023-04-16T10:04:52;5.17;;;2.40;;
10481;SDS011;5288;42.334;23.876;2023-04-16T10:07:19;7.63;;;3.57;;
10481;SDS011;5288;42.334;23.876;2023-04-16T10:09:47;5.10;;;2.87;;
10481;SDS011;5288;42.334;23.876;2023-04-16T10:12:16;4.93;;;2.20;;
10481;SDS011;5288;42.334;23.876;2023-04-16T10:14:45;6.63;;;4.10;;
10481;SDS011;5288;42.334;23.876;2023-04-16T10:17:12;11.37;;;9.60;;
10481;SDS011;5288;42.334;23.876;2023-04-16T10:19:39;5.27;;;3.07;;
10481;SDS011;5288;42.334;23.876;2023-04-16T10:22:06;5.53;;;3.03;;
10481;SDS011;5288;42.334;23.876;2023-04-16T10:24:33;7.37;;;4.47;;
10481;SDS011;5288;42.334;23.876;2023-04-16T10:27:00;7.47;;;5.17;;
10481;SDS011;5288;42.334;23.876;2023-04-16T10:29:28;5.73;;;3.33;;
10481;SDS011;5288;42.334;23.876;2023-04-16T10:31:58;4.27;;;3.30;;
10481;SDS011;5288;42.334;23.876;2023-04-16T10:34:25;5.00;;;3.30;;
10481;SDS011;5288;42.334;23.876;2023-04-16T10:36:55;5.03;;;2.83;;
10481;SDS011;5288;42.334;23.876;2023-04-16T10:39:22;5.80;;;3.13;;
10481;SDS011;5288;42.334;23.876;2023-04-16T10:42:05;6.17;;;3.47;;
10481;SDS011;5288;42.334;23.876;2023-04-16T10:44:33;11.17;;;6.20;;
10481;SDS011;5288;42.334;23.876;2023-04-16T10:47:02;7.03;;;4.07;;
10481;SDS011;5288;42.334;23.876;2023-04-16T10:49:36;11.83;;;8.70;;
10481;SDS011;5288;42.334;23.876;2023-04-16T10:52:06;8.93;;;2.63;;
10481;SDS011;5288;42.334;23.876;2023-04-16T10:54:35;50.93;;;40.63;;
10481;SDS011;5288;42.334;23.876;2023-04-16T10:57:03;9.87;;;7.97;;
10481;SDS011;5288;42.334;23.876;2023-04-16T10:59:31;7.00;;;5.17;;
10481;SDS011;5288;42.334;23.876;2023-04-16T11:02:00;6.43;;;3.20;;
10481;SDS011;5288;42.334;23.876;2023-04-16T11:04:35;23.47;;;14.07;;
10481;SDS011;5288;42.334;23.876;2023-04-16T11:07:04;6.03;;;4.90;;
10481;SDS011;5288;42.334;23.876;2023-04-16T11:09:45;7.27;;;5.57;;
10481;SDS011;5288;42.334;23.876;2023-04-16T11:12:24;11.90;;;10.63;;
10481;SDS011;5288;42.334;23.876;2023-04-16T11:14:53;8.63;;;5.40;;
10481;SDS011;5288;42.334;23.876;2023-04-16T11:17:28;6.47;;;2.87;;
10481;SDS011;5288;42.334;23.876;2023-04-16T11:19:57;7.17;;;4.33;;
10481;SDS011;5288;42.334;23.876;2023-04-16T11:22:24;24.83;;;9.67;;
10481;SDS011;5288;42.334;23.876;2023-04-16T11:24:52;9.43;;;6.57;;
10481;SDS011;5288;42.334;23.876;2023-04-16T11:27:21;4.63;;;1.87;;
10481;SDS011;5288;42.334;23.876;2023-04-16T11:29:55;7.00;;;2.70;;
10481;SDS011;5288;42.334;23.876;2023-04-16T11:32:23;3.83;;;2.60;;
10481;SDS011;5288;42.334;23.876;2023-04-16T11:34:52;3.90;;;2.20;;
10481;SDS011;5288;42.334;23.876;2023-04-16T11:37:19;3.60;;;2.00;;
10481;SDS011;5288;42.334;23.876;2023-04-16T11:39:50;5.20;;;2.70;;
10481;SDS011;5288;42.334;23.876;2023-04-16T11:42:18;5.13;;;2.20;;
10481;SDS011;5288;42.334;23.876;2023-04-16T11:44:48;6.10;;;3.40;;
10481;SDS011;5288;42.334;23.876;2023-04-16T11:47:18;9.77;;;3.77;;
10481;SDS011;5288;42.334;23.876;2023-04-16T11:49:44;30.77;;;18.77;;
10481;SDS011;5288;42.334;23.876;2023-04-16T11:52:13;8.97;;;3.70;;
10481;SDS011;5288;42.334;23.876;2023-04-16T11:54:51;6.43;;;2.50;;
10481;SDS011;5288;42.334;23.876;2023-04-16T11:57:22;8.13;;;4.17;;
10481;SDS011;5288;42.334;23.876;2023-04-16T11:59:50;9.67;;;4.20;;
10481;SDS011;5288;42.334;23.876;2023-04-16T12:02:17;4.73;;;2.90;;
10481;SDS011;5288;42.334;23.876;2023-04-16T12:05:00;8.30;;;3.33;;
10481;SDS011;5288;42.334;23.876;2023-04-16T12:07:28;12.93;;;9.27;;
10481;SDS011;5288;42.334;23.876;2023-04-16T12:10:03;7.30;;;4.13;;
10481;SDS011;5288;42.334;23.876;2023-04-16T12:12:31;5.13;;;2.67;;
10481;SDS011;5288;42.334;23.876;2023-04-16T12:14:58;5.00;;;2.53;;
10481;SDS011;5288;42.334;23.876;2023-04-16T12:17:27;11.27;;;6.97;;
10481;SDS011;5288;42.334;23.876;2023-04-16T12:19:55;9.80;;;6.73;;
10481;SDS011;5288;42.334;23.876;2023-04-16T12:22:27;4.60;;;3.37;;
10481;SDS011;5288;42.334;23.876;2023-04-16T12:24:59;5.13;;;3.23;;
10481;SDS011;5288;42.334;23.876;2023-04-16T12:27:39;7.53;;;3.13;;
10481;SDS011;5288;42.334;23.876;2023-04-16T12:30:08;6.60;;;3.60;;
10481;SDS011;5288;42.334;23.876;2023-04-16T12:32:35;2.90;;;2.30;;
10481;SDS011;5288;42.334;23.876;2023-04-16T12:35:02;3.47;;;2.17;;
10481;SDS011;5288;42.334;23.876;2023-04-16T12:37:31;9.33;;;4.30;;
10481;SDS011;5288;42.334;23.876;2023-04-16T12:39:59;5.77;;;3.80;;
10481;SDS011;5288;42.334;23.876;2023-04-16T12:42:26;5.37;;;2.87;;
10481;SDS011;5288;42.334;23.876;2023-04-16T12:44:59;5.50;;;2.63;;
10481;SDS011;5288;42.334;23.876;2023-04-16T12:47:26;6.33;;;2.60;;
10481;SDS011;5288;42.334;23.876;2023-04-16T12:49:54;5.37;;;2.30;;
10481;SDS011;5288;42.334;23.876;2023-04-16T12:52:21;5.60;;;2.37;;
10481;SDS011;5288;42.334;23.876;2023-04-16T12:54:49;8.03;;;6.53;;
10481;SDS011;5288;42.334;23.876;2023-04-16T12:57:16;3.30;;;1.93;;
10481;SDS011;5288;42.334;23.876;2023-04-16T12:59:43;6.13;;;4.23;;
10481;SDS011;5288;42.334;23.876;2023-04-16T13:02:11;3.83;;;2.67;;
10481;SDS011;5288;42.334;23.876;2023-04-16T13:04:38;6.73;;;4.90;;
10481;SDS011;5288;42.334;23.876;2023-04-16T13:07:05;7.00;;;2.70;;
10481;SDS011;5288;42.334;23.876;2023-04-16T13:09:32;6.23;;;2.50;;
10481;SDS011;5288;42.334;23.876;2023-04-16T13:12:00;3.70;;;2.03;;
10481;SDS011;5288;42.334;23.876;2023-04-16T13:14:30;5.07;;;3.20;;
10481;SDS011;5288;42.334;23.876;2023-04-16T13:16:57;4.00;;;1.87;;
10481;SDS011;5288;42.334;23.876;2023-04-16T13:19:24;3.73;;;2.03;;
10481;SDS011;5288;42.334;23.876;2023-04-16T13:21:51;3.87;;;2.13;;
10481;SDS011;5288;42.334;23.876;2023-04-16T13:24:18;6.47;;;2.03;;
10481;SDS011;5288;42.334;23.876;2023-04-16T13:26:45;5.40;;;3.70;;
10481;SDS011;5288;42.334;23.876;2023-04-16T13:29:13;6.83;;;3.10;;
10481;SDS011;5288;42.334;23.876;2023-04-16T13:31:40;3.27;;;2.40;;
10481;SDS011;5288;42.334;23.876;2023-04-16T13:34:07;2.80;;;2.10;;
10481;SDS011;5288;42.334;23.876;2023-04-16T13:36:34;6.97;;;2.50;;
10481;SDS011;5288;42.334;23.876;2023-04-16T13:39:01;11.30;;;4.27;;
10481;SDS011;5288;42.334;23.876;2023-04-16T13:41:34;5.10;;;3.40;;
10481;SDS011;5288;42.334;23.876;2023-04-16T13:44:01;6.27;;;2.50;;
10481;SDS011;5288;42.334;23.876;2023-04-16T13:46:29;5.77;;;1.87;;
10481;SDS011;5288;42.334;23.876;2023-04-16T13:48:56;4.90;;;2.87;;
10481;SDS011;5288;42.334;23.876;2023-04-16T13:51:23;7.10;;;2.97;;
10481;SDS011;5288;42.334;23.876;2023-04-16T13:53:52;5.57;;;3.47;;
10481;SDS011;5288;42.334;23.876;2023-04-16T13:56:19;6.67;;;2.70;;
10481;SDS011;5288;42.334;23.876;2023-04-16T13:58:46;5.63;;;2.30;;
10481;SDS011;5288;42.334;23.876;2023-04-16T14:01:13;5.27;;;2.30;;
10481;SDS011;5288;42.334;23.876;2023-04-16T14:03:42;6.10;;;3.20;;
10481;SDS011;5288;42.334;23.876;2023-04-16T14:06:09;4.40;;;2.73;;
10481;SDS011;5288;42.334;23.876;2023-04-16T14:08:37;6.67;;;5.00;;
10481;SDS011;5288;42.334;23.876;2023-04-16T14:11:05;12.93;;;9.33;;
10481;SDS011;5288;42.334;23.876;2023-04-16T14:13:33;4.93;;;2.73;;
10481;SDS011;5288;42.334;23.876;2023-04-16T14:16:01;3.93;;;1.97;;
10481;SDS011;5288;42.334;23.876;2023-04-16T14:18:28;10.07;;;4.40;;
10481;SDS011;5288;42.334;23.876;2023-04-16T14:20:56;6.93;;;3.00;;
10481;SDS011;5288;42.334;23.876;2023-04-16T14:23:26;10.87;;;7.40;;
10481;SDS011;5288;42.334;23.876;2023-04-16T14:25:53;11.97;;;5.10;;
10481;SDS011;5288;42.334;23.876;2023-04-16T14:28:20;14.03;;;8.17;;
10481;SDS011;5288;42.334;23.876;2023-04-16T14:30:47;6.50;;;2.37;;
10481;SDS011;5288;42.334;23.876;2023-04-16T14:33:15;7.80;;;4.00;;
10481;SDS011;5288;42.334;23.876;2023-04-16T14:35:42;7.17;;;4.53;;
10481;SDS011;5288;42.334;23.876;2023-04-16T14:38:10;10.97;;;6.10;;
10481;SDS011;5288;42.334;23.876;2023-04-16T14:40:37;8.93;;;3.27;;
10481;SDS011;5288;42.334;23.876;2023-04-16T14:43:04;6.63;;;4.70;;
10481;SDS011;5288;42.334;23.876;2023-04-16T14:45:31;6.57;;;4.30;;
10481;SDS011;5288;42.334;23.876;2023-04-16T14:47:58;5.17;;;2.60;;